Time;durP1;ratioP1;P1;durP2;ratioP2;P2;SDS_P1;SDS_P2;PMS_P1;PMS_P2;Temp;Humidity;BMP_temperature;BMP_pressure;BME280_temperature;BME280_humidity;BME280_pressure;Samples;Min_cycle;Max_cycle;Signal;HPM_P1;HPM_P2
2023/03/21 00:00:18;;;;;;;4.78;3.30;;;;;;;10.90;62.53;99733.72;5053020;28;19913;-77
2023/03/21 00:02:45;;;;;;;;;;;;;;;11.04;61.19;99732.66;5069755;28;20040;-77
2023/03/21 00:05:10;;;;;;;3.85;2.53;;;;;;;10.80;60.60;99694.31;5052492;28;19912;-77
2023/03/21 00:07:36;;;;;;;;;;;;;;;10.88;61.08;99727.59;5052325;28;20033;-78
2023/03/21 00:10:01;;;;;;;4.78;4.38;;;;;;;10.74;61.75;99729.59;5052308;28;20374;-77
2023/03/21 00:12:31;;;;;;;;;;;;;;;10.64;62.20;99723.56;5052637;28;20641;-77
2023/03/21 00:15:03;;;;;;;5.03;4.45;;;;;;;10.68;61.88;99725.28;5052574;28;19916;-78
2023/03/21 00:17:31;;;;;;;7.00;6.30;;;;;;;10.61;62.01;99693.72;5052645;28;20032;-78
2023/03/21 00:20:04;;;;;;;8.63;6.18;;;;;;;10.59;61.41;99692.91;5051067;28;20356;-78
2023/03/21 00:22:29;;;;;;;3.90;3.55;;;;;;;10.54;61.62;99688.56;5052259;28;20127;-77
2023/03/21 00:24:55;;;;;;;;;;;;;;;10.46;62.62;99714.19;5053589;28;20136;-77
2023/03/21 00:27:20;;;;;;;4.00;3.70;;;;;;;10.41;61.54;99687.00;5052262;28;20305;-77
2023/03/21 00:29:48;;;;;;;;;;;;;;;10.45;62.16;99707.16;5052092;28;20029;-82
2023/03/21 00:32:16;;;;;;;7.45;3.78;;;;;;;10.23;62.16;99674.91;5052097;28;20007;-77
2023/03/21 00:34:42;;;;;;;4.15;3.67;;;;;;;10.21;62.14;99668.81;5049917;28;20446;-78
2023/03/21 00:37:08;;;;;;;;;;;;;;;10.27;62.31;99702.09;5069105;28;20056;-78
2023/03/21 00:39:35;;;;;;;6.38;4.47;;;;;;;10.18;61.17;99680.25;5053165;28;19916;-77
2023/03/21 00:42:00;;;;;;;3.90;2.22;;;;;;;10.05;61.75;99705.00;5066946;28;20170;-77
2023/03/21 00:44:26;;;;;;;;;;;;;;;9.98;61.88;99700.72;5053943;28;20119;-77
2023/03/21 00:46:51;;;;;;;9.05;3.67;;;;;;;9.95;62.68;99682.31;5064370;28;20416;-78
2023/03/21 00:49:19;;;;;;;;;;;;;;;10.02;62.96;99682.22;5071739;28;20060;-78
2023/03/21 00:51:44;;;;;;;2.60;2.40;;;;;;;10.17;62.17;99681.13;5070101;28;20000;-77
2023/03/21 00:54:10;;;;;;;;;;;;;;;10.15;62.29;99680.28;5072068;28;20029;-77
2023/03/21 00:56:36;;;;;;;1.50;1.40;;;;;;;10.10;62.08;99655.78;5071374;28;19916;-77
2023/03/21 00:59:01;;;;;;;;;;;;;;;10.19;62.57;99674.09;5071915;28;20115;-78
2023/03/21 01:01:30;;;;;;;;;;;;;;;10.17;62.33;99664.44;5069919;28;19920;-78
2023/03/21 01:04:04;;;;;;;1.38;1.08;;;;;;;10.17;62.39;99653.91;5070948;28;20398;-77
2023/03/21 01:06:31;;;;;;;3.80;2.22;;;;;;;10.20;61.54;99641.53;5060293;28;20059;-78
2023/03/21 01:08:57;;;;;;;7.20;6.53;;;;;;;9.99;61.31;99632.19;5051584;28;20036;-77
2023/03/21 01:11:25;;;;;;;;;;;;;;;9.99;60.86;99652.38;5052159;28;20418;-77
2023/03/21 01:13:51;;;;;;;2.60;1.73;;;;;;;9.98;61.04;99646.25;5050955;28;19913;-78
2023/03/21 01:16:17;;;;;;;4.68;4.28;;;;;;;9.79;60.95;99594.69;5051924;28;20029;-78
2023/03/21 01:18:42;;;;;;;;;;;;;;;9.84;63.15;99646.44;5052800;28;20517;-77
2023/03/21 01:21:10;;;;;;;;;;;;;;;10.00;62.51;99646.22;5051703;28;19909;-77
2023/03/21 01:23:35;;;;;;;8.80;4.13;;;;;;;10.03;62.46;99636.50;5050571;28;19923;-77
2023/03/21 01:26:01;;;;;;;;;;;;;;;9.98;62.13;99646.25;5051294;28;20028;-76
2023/03/21 01:28:28;;;;;;;4.88;3.83;;;;;;;10.02;62.35;99620.72;5051641;28;19921;-77
2023/03/21 01:30:53;;;;;;;10.93;7.85;;;;;;;10.02;62.22;99636.53;5050602;28;20116;-77
2023/03/21 01:33:19;;;;;;;;;;;;;;;10.08;61.99;99639.09;5065192;28;20147;-77
2023/03/21 01:35:45;;;;;;;11.88;4.82;;;;;;;9.89;62.21;99609.50;5066056;28;19917;-77
2023/03/21 01:38:10;;;;;;;;;;;;;;;9.99;62.42;99632.19;5068740;28;20422;-77
2023/03/21 01:40:36;;;;;;;;;;;;;;;9.88;63.24;99634.09;5071272;28;19970;-77
2023/03/21 01:43:03;;;;;;;4.90;3.55;;;;;;;10.03;62.80;99636.50;5055451;28;20007;-77
2023/03/21 01:46:05;;;;;;;7.90;4.28;;;;;;;9.95;63.84;99627.84;5050280;28;20035;-77
2023/03/21 01:48:32;;;;;;;7.78;3.90;;;;;;;9.75;64.33;99588.59;5048866;28;20025;-77
2023/03/21 01:50:59;;;;;;;7.63;4.85;;;;;;;10.02;64.24;99599.63;5050396;28;20571;-77
2023/03/21 01:53:29;;;;;;;8.50;4.53;;;;;;;10.15;64.36;99610.91;5036234;28;20068;-77
2023/03/21 01:56:01;;;;;;;4.43;3.83;;;;;;;10.04;63.97;99588.19;5030451;28;20507;-78
2023/03/21 01:58:28;;;;;;;3.75;3.47;;;;;;;10.14;63.81;99591.56;5043105;28;20036;-77
2023/03/21 02:00:55;;;;;;;4.75;4.35;;;;;;;10.15;63.69;99597.72;5050192;28;20029;-76
2023/03/21 02:03:22;;;;;;;7.95;4.90;;;;;;;9.91;64.34;99607.69;5069151;28;20491;-77
2023/03/21 02:06:00;;;;;;;6.45;5.85;;;;;;;9.75;64.46;99614.94;5060191;28;20516;-76
2023/03/21 02:08:29;;;;;;;3.90;3.53;;;;;;;9.52;64.76;99582.75;5058987;28;20036;-77
2023/03/21 02:10:54;;;;;;;4.30;4.00;;;;;;;9.62;64.56;99594.91;5070131;28;20036;-77
2023/03/21 02:13:20;;;;;;;;;;;;;;;9.67;64.82;99593.97;5070712;28;20028;-77
2023/03/21 02:16:04;;;;;;;2.65;2.17;;;;;;;9.85;64.40;99595.50;5069943;28;19978;-77
2023/03/21 02:18:41;;;;;;;4.63;3.90;;;;;;;9.92;64.13;99592.78;5049595;28;20499;-78
2023/03/21 02:21:25;;;;;;;3.78;3.20;;;;;;;10.08;64.91;99591.66;5067897;28;20071;-77
2023/03/21 02:24:06;;;;;;;3.85;2.75;;;;;;;9.61;67.49;99585.28;5070075;28;20052;-77
2023/03/21 02:26:53;;;;;;;8.55;5.72;;;;;;;9.54;68.15;99596.78;5070326;28;20029;-77
2023/03/21 02:29:27;;;;;;;3.28;3.05;;;;;;;9.84;67.48;99603.41;5070114;28;20092;-80
2023/03/21 02:32:05;;;;;;;7.03;4.30;;;;;;;9.90;67.72;99599.81;5069765;28;20032;-77
2023/03/21 02:34:58;;;;;;;5.57;4.53;;;;;;;10.01;67.64;99597.91;5064579;28;20422;-76
2023/03/21 02:37:31;;;;;;;2.45;2.25;;;;;;;10.12;67.42;99593.34;5069782;28;20040;-77
2023/03/21 02:40:11;;;;;;;4.32;3.92;;;;;;;9.82;67.33;99570.94;5062635;28;20025;-77
2023/03/21 02:42:47;;;;;;;3.88;3.58;;;;;;;9.57;69.53;99597.59;5070345;28;20408;-76
2023/03/21 02:45:35;;;;;;;4.93;3.50;;;;;;;9.80;68.99;99599.94;5068084;28;20037;-77
2023/03/21 02:48:17;;;;;;;3.10;2.88;;;;;;;9.91;68.38;99591.03;5070624;28;20020;-77
2023/03/21 02:50:47;;;;;;;6.00;3.65;;;;;;;10.01;68.02;99619.00;5070185;28;20048;-78
2023/03/21 02:53:16;;;;;;;6.30;4.80;;;;;;;10.07;67.79;99599.56;5069909;28;20036;-77
2023/03/21 02:55:43;;;;;;;6.13;5.32;;;;;;;9.83;68.28;99581.44;5069951;28;20469;-77
2023/03/21 02:58:13;;;;;;;5.35;4.70;;;;;;;9.34;71.24;99592.59;5073553;28;20031;-76
2023/03/21 03:00:41;;;;;;;13.25;6.10;;;;;;;9.05;72.10;99574.50;5073044;28;20024;-76
2023/03/21 03:03:07;;;;;;;4.43;4.05;;;;;;;9.38;72.06;99611.91;5073952;28;20032;-77
2023/03/21 03:05:35;;;;;;;;;;;;;;;9.60;71.70;99601.97;5072205;28;20468;-77
2023/03/21 03:08:34;;;;;;;3.72;3.42;;;;;;;9.63;70.90;99607.19;5066933;28;20378;-77
2023/03/21 03:11:24;;;;;;;20.73;5.35;;;;;;;9.63;70.92;99613.31;5012930;28;20626;-77
2023/03/21 03:14:02;;;;;;;6.93;4.05;;;;;;;9.76;70.44;99613.16;5006370;28;20046;-77
2023/03/21 03:16:27;;;;;;;4.03;3.70;;;;;;;9.85;69.91;99616.56;5011669;28;20073;-78
2023/03/21 03:18:58;;;;;;;;;;;;;;;9.94;69.16;99623.47;5011412;28;20072;-77
2023/03/21 03:21:41;;;;;;;4.88;3.58;;;;;;;10.02;68.88;99629.53;5012426;28;19917;-78
2023/03/21 03:24:16;;;;;;;4.32;3.63;;;;;;;9.90;69.03;99597.19;5011063;28;20058;-77
2023/03/21 03:26:49;;;;;;;4.72;3.42;;;;;;;9.94;68.33;99596.25;5011447;28;20034;-77
2023/03/21 03:29:17;;;;;;;4.53;3.97;;;;;;;10.00;68.72;99606.69;5023390;28;20065;-77
2023/03/21 03:31:50;;;;;;;18.20;6.03;;;;;;;9.95;68.73;99603.28;5012184;28;20096;-77
2023/03/21 03:34:19;;;;;;;4.90;4.32;;;;;;;9.81;68.42;99588.50;5011413;28;20638;-77
2023/03/21 03:36:50;;;;;;;3.55;3.25;;;;;;;9.91;68.59;99609.47;5010987;28;20044;-77
2023/03/21 03:39:17;;;;;;;7.30;6.00;;;;;;;9.88;68.23;99620.03;5011834;28;20483;-77
2023/03/21 03:41:47;;;;;;;9.00;5.78;;;;;;;9.94;67.69;99612.06;4991363;28;20077;-78
2023/03/21 03:44:13;;;;;;;4.28;3.72;;;;;;;9.23;70.23;99600.63;5023022;28;20080;-77
2023/03/21 03:47:11;;;;;;;;;;;;;;;9.22;71.32;99619.06;5018872;28;20061;-77
2023/03/21 03:49:45;;;;;;;2.92;2.70;;;;;;;9.50;70.61;99625.78;4991218;28;19960;-78
2023/03/21 03:52:39;;;;;;;14.18;5.13;;;;;;;9.48;69.21;99618.78;4991085;28;20069;-77
2023/03/21 03:55:06;;;;;;;6.65;4.72;;;;;;;9.50;68.98;99599.44;5011476;28;20038;-79
2023/03/21 03:57:31;;;;;;;5.85;3.65;;;;;;;9.52;69.52;99607.31;5010568;28;20577;-78
2023/03/21 03:59:57;;;;;;;;;;;;;;;9.53;69.82;99618.72;5011014;28;20081;-78
2023/03/21 04:02:22;;;;;;;7.47;3.78;;;;;;;9.43;69.34;99603.03;5010662;28;19921;-79
2023/03/21 04:04:51;;;;;;;;;;;;;;;9.42;69.37;99625.00;5011865;28;20034;-79
2023/03/21 04:07:21;;;;;;;4.82;4.38;;;;;;;9.54;69.01;99633.63;5004691;28;20361;-78
2023/03/21 04:09:46;;;;;;;4.88;4.45;;;;;;;9.29;69.29;99592.66;5021915;28;20048;-80
2023/03/21 04:12:12;;;;;;;;;;;;;;;9.40;68.96;99621.50;5014088;28;20042;-80
2023/03/21 04:14:37;;;;;;;2.88;2.67;;;;;;;9.21;67.95;99593.66;5011428;28;20008;-78
2023/03/21 04:17:02;;;;;;;;;;;;;;;9.20;68.96;99628.75;4998192;28;20471;-78
2023/03/21 04:19:28;;;;;;;;;;;;;;;9.06;68.57;99624.47;4990973;28;19914;-77
2023/03/21 04:21:54;;;;;;;3.13;2.88;;;;;;;8.98;68.27;99622.84;4998535;28;20384;-78
2023/03/21 04:24:19;;;;;;;;;;;;;;;9.11;68.85;99624.44;5019170;28;20056;-79
2023/03/21 04:26:45;;;;;;;4.07;3.33;;;;;;;8.91;68.81;99616.75;5056766;28;20306;-77
2023/03/21 04:29:10;;;;;;;;;;;;;;;8.77;68.93;99628.28;5048470;28;20025;-78
2023/03/21 04:31:36;;;;;;;;;;;;;;;8.72;69.20;99634.44;5049522;28;19981;-78
2023/03/21 04:34:08;;;;;;;6.13;3.97;;;;;;;8.68;68.81;99604.69;5046264;28;19920;-79
2023/03/21 04:36:41;;;;;;;6.18;4.85;;;;;;;8.74;68.75;99627.41;5047147;28;20360;-77
2023/03/21 04:39:11;;;;;;;6.00;3.65;;;;;;;8.61;68.89;99613.50;5048945;28;20114;-77
2023/03/21 04:41:39;;;;;;;5.32;4.82;;;;;;;8.85;68.71;99637.84;5050664;28;20167;-77
2023/03/21 04:44:05;;;;;;;5.05;4.63;;;;;;;8.80;68.72;99630.00;5050779;28;20060;-78
2023/03/21 04:46:30;;;;;;;;;;;;;;;8.84;69.41;99652.75;5051571;28;20479;-78
2023/03/21 04:48:55;;;;;;;2.78;2.58;;;;;;;8.90;68.69;99649.22;5055290;28;19908;-79
2023/03/21 04:51:21;;;;;;;;;;;;;;;8.87;69.30;99654.50;5071621;28;20036;-78
2023/03/21 04:53:48;;;;;;;7.57;3.90;;;;;;;8.78;68.97;99635.25;5071742;28;19923;-77
2023/03/21 04:56:14;;;;;;;10.13;4.75;;;;;;;8.84;68.99;99639.59;5069331;28;20108;-77
2023/03/21 04:58:41;;;;;;;8.68;4.35;;;;;;;8.76;68.85;99644.06;5071030;28;20040;-78
2023/03/21 05:01:07;;;;;;;12.02;7.68;;;;;;;8.64;68.61;99617.88;5071081;28;20043;-77
2023/03/21 05:03:38;;;;;;;2.92;2.72;;;;;;;8.40;68.83;99636.44;5069241;28;20097;-78
2023/03/21 05:06:07;;;;;;;7.78;6.50;;;;;;;8.46;68.88;99650.44;5052088;28;20035;-78
2023/03/21 05:08:36;;;;;;;5.25;3.40;;;;;;;8.42;69.20;99670.59;5051205;28;20025;-78
2023/03/21 05:11:03;;;;;;;7.93;6.00;;;;;;;8.55;69.13;99640.72;5055472;28;20028;-76
2023/03/21 05:13:28;;;;;;;3.40;3.10;;;;;;;8.67;69.39;99663.41;5053764;28;20041;-76
2023/03/21 05:15:54;;;;;;;;;;;;;;;8.80;69.33;99665.94;5050749;28;20043;-76
2023/03/21 05:18:23;;;;;;;;;;;;;;;8.64;68.94;99665.22;5050163;28;20409;-77
2023/03/21 05:20:54;;;;;;;2.33;2.22;;;;;;;8.83;69.02;99661.53;5055614;28;20294;-77
2023/03/21 05:23:23;;;;;;;8.50;4.05;;;;;;;8.77;68.91;99630.00;5056940;28;20048;-78
2023/03/21 05:25:49;;;;;;;15.57;6.53;;;;;;;9.08;69.32;99672.72;5070087;28;20032;-79
2023/03/21 05:28:17;;;;;;;;;;;;;;;9.28;68.77;99664.63;5070744;28;20036;-77
2023/03/21 05:30:44;;;;;;;3.97;3.72;;;;;;;9.40;69.93;99663.63;5055296;28;19921;-77
2023/03/21 05:33:09;;;;;;;5.18;4.70;;;;;;;9.49;69.06;99653.00;5050345;28;20036;-76
2023/03/21 05:35:35;;;;;;;;;;;;;;;9.58;70.19;99662.56;5050436;28;20025;-77
2023/03/21 05:38:00;;;;;;;;;;;;;;;9.78;69.81;99666.72;5050654;28;20322;-78
2023/03/21 05:40:26;;;;;;;5.17;4.20;;;;;;;9.81;69.50;99646.47;5050426;28;20292;-77
2023/03/21 05:42:51;;;;;;;;;;;;;;;9.98;70.18;99655.94;5050797;28;20282;-78
2023/03/21 05:45:16;;;;;;;;;;;;;;;9.97;70.78;99654.19;5050310;28;19973;-79
2023/03/21 05:47:42;;;;;;;5.03;3.57;;;;;;;10.02;71.55;99658.50;5050540;28;19919;-77
2023/03/21 05:50:07;;;;;;;;;;;;;;;10.07;71.79;99661.09;5049143;28;20279;-77
2023/03/21 05:52:33;;;;;;;;;;;;;;;10.12;71.64;99663.66;5044519;28;19919;-78
2023/03/21 05:54:58;;;;;;;18.10;4.28;;;;;;;10.29;71.31;99664.28;5047714;28;19923;-78
2023/03/21 05:57:25;;;;;;;;;;;;;;;10.36;71.90;99659.81;5049723;28;20033;-78
2023/03/21 05:59:50;;;;;;;4.75;4.35;;;;;;;10.44;71.07;99660.59;5048678;28;20007;-79
2023/03/21 06:02:15;;;;;;;;;;;;;;;10.63;71.14;99658.53;5049454;28;20621;-78
2023/03/21 06:04:41;;;;;;;;;;;;;;;10.59;71.01;99655.97;5046083;28;19917;-80
2023/03/21 06:07:06;;;;;;;3.10;2.90;;;;;;;10.71;70.10;99632.88;5049034;28;19917;-79
2023/03/21 06:09:32;;;;;;;;;;;;;;;10.78;70.61;99662.66;5031058;28;20029;-79
2023/03/21 06:11:58;;;;;;;4.35;3.95;;;;;;;10.37;71.78;99629.94;5030188;28;19920;-81
2023/03/21 06:14:24;;;;;;;;;;;;;;;10.72;71.93;99653.09;5033977;28;20029;-79
2023/03/21 06:16:49;;;;;;;7.13;5.07;;;;;;;10.46;71.64;99621.88;5038358;28;20402;-82
2023/03/21 06:19:15;;;;;;;;;;;;;;;10.99;70.81;99655.31;5035800;28;20040;-79
2023/03/21 06:21:40;;;;;;;2.47;2.28;;;;;;;11.15;70.83;99626.88;5032169;28;19935;-79
2023/03/21 06:24:06;;;;;;;;;;;;;;;11.36;70.21;99654.66;5051431;28;20044;-78
2023/03/21 06:26:32;;;;;;;2.63;2.42;;;;;;;11.26;70.02;99638.97;5055367;28;19916;-78
2023/03/21 06:28:57;;;;;;;;;;;;;;;11.32;70.66;99652.94;5061050;28;20479;-78
2023/03/21 06:31:24;;;;;;;3.90;3.47;;;;;;;11.11;71.75;99632.19;5056025;28;20849;-77
2023/03/21 06:33:50;;;;;;;4.32;3.70;;;;;;;11.31;72.35;99648.56;5072388;28;20032;-78
2023/03/21 06:36:16;;;;;;;9.45;3.72;;;;;;;11.27;70.72;99634.56;5066115;28;20036;-77
2023/03/21 06:38:42;;;;;;;13.63;6.20;;;;;;;11.23;71.96;99651.34;5059140;28;20031;-77
2023/03/21 06:41:08;;;;;;;;;;;;;;;11.10;72.05;99651.56;5063344;28;20024;-77
2023/03/21 06:43:34;;;;;;;1.83;1.73;;;;;;;11.13;71.37;99658.56;5053479;28;19909;-78
2023/03/21 06:45:59;;;;;;;;;;;;;;;11.33;70.79;99654.69;5053500;28;20048;-78
2023/03/21 06:48:26;;;;;;;4.55;2.40;;;;;;;11.49;69.64;99656.13;5052091;28;19977;-77
2023/03/21 06:50:52;;;;;;;5.25;4.80;;;;;;;11.42;70.06;99644.81;5033682;28;20484;-77
2023/03/21 06:53:20;;;;;;;4.43;3.70;;;;;;;11.29;70.56;99623.06;5033580;28;20037;-78
2023/03/21 06:55:55;;;;;;;6.28;3.60;;;;;;;11.73;69.50;99644.22;5045233;28;20028;-79
2023/03/21 06:58:21;;;;;;;4.38;4.05;;;;;;;11.92;68.44;99628.88;5039373;28;20029;-78
2023/03/21 07:00:47;;;;;;;3.55;3.10;;;;;;;12.02;68.21;99624.28;5053523;28;20048;-77
2023/03/21 07:03:12;;;;;;;;;;;;;;;12.16;68.13;99660.97;5053771;28;20040;-76
2023/03/21 07:05:38;;;;;;;;;;;;;;;12.51;67.61;99657.53;5054054;28;19912;-78
2023/03/21 07:08:05;;;;;;;4.88;4.38;;;;;;;12.70;66.84;99644.72;5053186;28;19947;-78
2023/03/21 07:10:31;;;;;;;4.30;3.90;;;;;;;12.81;66.55;99638.31;5053190;28;20060;-78
2023/03/21 07:13:00;;;;;;;;;;;;;;;13.26;66.12;99660.06;5053363;28;20108;-78
2023/03/21 07:15:25;;;;;;;4.45;4.05;;;;;;;13.01;65.63;99628.06;5053533;28;19913;-78
2023/03/21 07:17:51;;;;;;;;;;;;;;;13.15;65.99;99661.28;5053630;28;20032;-78
2023/03/21 07:20:16;;;;;;;;;;;;;;;12.94;66.75;99654.75;5054007;28;19919;-78
2023/03/21 07:22:42;;;;;;;5.45;4.10;;;;;;;13.07;66.06;99646.44;5053192;28;19916;-79
2023/03/21 07:25:07;;;;;;;;;;;;;;;13.21;66.56;99658.47;5054044;28;20057;-78
2023/03/21 07:27:33;;;;;;;5.22;4.03;;;;;;;13.40;65.80;99642.97;5053585;28;20017;-78
2023/03/21 07:29:58;;;;;;;;;;;;;;;13.55;65.06;99655.78;5053546;28;20115;-78
2023/03/21 07:32:23;;;;;;;;;;;;;;;13.57;64.45;99653.09;5053273;28;19913;-79
2023/03/21 07:34:49;;;;;;;;;;;;;;;13.92;63.97;99643.28;5053399;28;20398;-78
2023/03/21 07:37:15;;;;;;;4.17;2.53;;;;;;;13.77;64.05;99633.97;5053025;28;20035;-79
2023/03/21 07:39:41;;;;;;;5.63;4.43;;;;;;;14.11;62.97;99640.94;5052889;28;20029;-82
2023/03/21 07:42:07;;;;;;;5.45;4.80;;;;;;;14.47;62.41;99627.41;5052097;28;20037;-79
2023/03/21 07:44:33;;;;;;;;;;;;;;;14.84;60.64;99640.41;5052897;28;20059;-79
2023/03/21 07:46:58;;;;;;;3.63;2.88;;;;;;;14.84;59.92;99616.53;5053010;28;19924;-77
2023/03/21 07:49:23;;;;;;;;;;;;;;;15.02;60.21;99636.25;5053431;28;20110;-78
2023/03/21 07:51:49;;;;;;;;;;;;;;;15.09;60.05;99636.03;5052756;28;20390;-78
2023/03/21 07:54:18;;;;;;;4.40;4.00;;;;;;;15.20;60.75;99631.25;5052776;28;19935;-78
2023/03/21 07:56:43;;;;;;;2.70;2.50;;;;;;;15.30;59.58;99637.09;5052296;28;20060;-78
2023/03/21 07:59:09;;;;;;;4.25;3.10;;;;;;;15.22;58.93;99624.06;5052978;28;20052;-78
2023/03/21 08:01:34;;;;;;;4.85;3.72;;;;;;;15.67;58.03;99631.31;5052883;28;20029;-77
2023/03/21 08:03:59;;;;;;;7.13;4.57;;;;;;;15.54;57.20;99598.13;5052732;28;20033;-78
2023/03/21 08:06:27;;;;;;;6.50;4.40;;;;;;;15.96;56.71;99592.16;5052734;28;20037;-78
2023/03/21 08:08:52;;;;;;;3.08;2.75;;;;;;;16.33;54.98;99609.31;5052779;28;20056;-78
2023/03/21 08:11:20;;;;;;;3.58;3.28;;;;;;;16.42;54.98;99622.25;5052189;28;20071;-78
2023/03/21 08:13:45;;;;;;;7.05;2.38;;;;;;;16.25;55.53;99620.28;5052028;28;20025;-79
2023/03/21 08:16:11;;;;;;;2.83;2.58;;;;;;;16.12;55.32;99632.31;5052481;28;20398;-78
2023/03/21 08:18:36;;;;;;;6.70;3.35;;;;;;;16.06;55.24;99589.97;5051968;28;20052;-78
2023/03/21 08:21:02;;;;;;;3.75;3.45;;;;;;;16.23;54.45;99599.97;5052019;28;20036;-77
2023/03/21 08:23:28;;;;;;;;;;;;;;;16.83;53.07;99619.66;5052468;28;20082;-77
2023/03/21 08:25:55;;;;;;;2.35;1.83;;;;;;;16.88;54.06;99611.50;5051858;28;19952;-78
2023/03/21 08:28:21;;;;;;;3.33;2.97;;;;;;;16.83;53.03;99597.50;5052837;28;20036;-78
2023/03/21 08:30:47;;;;;;;4.32;2.42;;;;;;;17.11;52.28;99596.34;5052526;28;20031;-78
2023/03/21 08:33:13;;;;;;;7.05;4.82;;;;;;;16.88;52.58;99587.53;5052692;28;20091;-79
2023/03/21 08:35:39;;;;;;;10.80;4.10;;;;;;;16.91;52.62;99599.88;5052176;28;20121;-78
2023/03/21 08:38:05;;;;;;;4.25;3.22;;;;;;;17.03;52.38;99585.16;5052017;28;20031;-79
2023/03/21 08:40:31;;;;;;;4.03;2.85;;;;;;;16.67;51.46;99581.31;5051680;28;20039;-77
2023/03/21 08:42:57;;;;;;;3.95;3.00;;;;;;;17.10;53.43;99613.25;5052193;28;20419;-80
2023/03/21 08:45:24;;;;;;;5.60;2.65;;;;;;;17.20;51.07;99558.63;5051760;28;20036;-79
2023/03/21 08:47:50;;;;;;;19.75;4.97;;;;;;;16.81;51.68;99564.75;5052272;28;20044;-78
2023/03/21 08:50:18;;;;;;;5.03;2.85;;;;;;;16.92;51.28;99602.47;5051829;28;20119;-79
2023/03/21 08:52:44;;;;;;;5.40;3.90;;;;;;;16.97;50.43;99591.63;5050950;28;20033;-79
2023/03/21 08:55:10;;;;;;;7.65;2.58;;;;;;;17.13;50.17;99592.69;5051416;28;20491;-77
2023/03/21 08:57:36;;;;;;;3.10;2.55;;;;;;;16.87;49.94;99603.59;5051485;28;20414;-78
2023/03/21 09:00:13;;;;;;;4.88;3.35;;;;;;;16.97;50.51;99573.81;5051154;28;20059;-77
2023/03/21 09:02:40;;;;;;;4.93;3.15;;;;;;;17.30;48.65;99564.41;5051967;28;20483;-77
2023/03/21 09:05:06;;;;;;;4.18;2.28;;;;;;;17.43;50.13;99584.25;5050362;28;20360;-79
2023/03/21 09:07:35;;;;;;;7.32;4.72;;;;;;;17.76;49.67;99602.31;5050409;28;20029;-79
2023/03/21 09:10:09;;;;;;;2.92;2.45;;;;;;;17.16;49.55;99581.91;5051219;28;20029;-77
2023/03/21 09:12:36;;;;;;;4.10;3.15;;;;;;;17.06;49.24;99579.72;5051609;28;20047;-77
2023/03/21 09:15:03;;;;;;;4.57;3.65;;;;;;;16.81;50.48;99575.41;5051583;28;20037;-78
2023/03/21 09:17:30;;;;;;;5.13;3.53;;;;;;;16.76;49.49;99590.69;5051278;28;20029;-77
2023/03/21 09:19:56;;;;;;;6.07;4.32;;;;;;;16.53;50.06;99562.38;5051154;28;20039;-78
2023/03/21 09:22:22;;;;;;;4.30;2.95;;;;;;;16.90;49.87;99559.06;5051007;28;20028;-78
2023/03/21 09:24:49;;;;;;;1.95;1.80;;;;;;;17.33;49.67;99573.16;5050976;28;20029;-78
2023/03/21 09:27:16;;;;;;;3.85;2.85;;;;;;;17.65;48.70;99576.13;5051022;28;20111;-78
2023/03/21 09:29:43;;;;;;;6.68;3.72;;;;;;;17.86;47.52;99570.75;5050007;28;20452;-78
2023/03/21 09:32:10;;;;;;;2.88;2.55;;;;;;;17.76;47.57;99558.78;5050590;28;20060;-77
2023/03/21 09:34:39;;;;;;;4.45;3.25;;;;;;;17.70;48.11;99584.81;5050833;28;20090;-78
2023/03/21 09:37:08;;;;;;;3.38;2.95;;;;;;;17.99;45.58;99579.09;5050996;28;20025;-78
2023/03/21 09:39:36;;;;;;;3.65;2.45;;;;;;;18.41;45.25;99576.16;5050974;28;20128;-78
2023/03/21 09:42:23;;;;;;;3.63;3.20;;;;;;;18.55;47.16;99577.25;5050468;28;20033;-78
2023/03/21 09:45:00;;;;;;;9.13;2.55;;;;;;;18.66;44.94;99564.25;5050606;28;20139;-81
2023/03/21 09:47:31;;;;;;;3.88;2.83;;;;;;;18.69;44.91;99525.81;5050542;28;20037;-78
2023/03/21 09:50:06;;;;;;;9.23;4.97;;;;;;;18.96;43.90;99542.25;5050781;28;20036;-78
2023/03/21 09:52:58;;;;;;;5.30;3.83;;;;;;;18.74;44.69;99563.84;5050521;28;20052;-77
2023/03/21 09:55:30;;;;;;;4.85;3.22;;;;;;;18.66;45.12;99545.53;5050274;28;20083;-78
2023/03/21 09:58:11;;;;;;;6.85;4.18;;;;;;;18.98;44.81;99555.53;5050728;28;20032;-78
2023/03/21 10:00:39;;;;;;;2.05;1.80;;;;;;;19.03;44.19;99538.34;5050000;28;20024;-78
2023/03/21 10:03:18;;;;;;;14.52;4.50;;;;;;;18.43;44.49;99544.88;5050328;28;20051;-78
2023/03/21 10:05:45;;;;;;;5.72;3.83;;;;;;;18.20;44.08;99547.84;5049867;28;20032;-79
2023/03/21 10:08:43;;;;;;;4.10;2.35;;;;;;;18.69;45.19;99563.19;5048310;28;20051;-78
2023/03/21 10:11:21;;;;;;;6.30;3.35;;;;;;;19.29;44.34;99550.31;5026780;28;20045;-79
2023/03/21 10:13:55;;;;;;;4.43;3.38;;;;;;;19.54;43.91;99534.75;5027384;28;20045;-80
2023/03/21 10:16:36;;;;;;;16.92;3.22;;;;;;;19.67;42.04;99531.31;5027438;28;20045;-80
2023/03/21 10:19:10;;;;;;;3.30;2.47;;;;;;;18.94;44.30;99488.03;5025141;28;20034;-80
2023/03/21 10:21:42;;;;;;;3.95;2.90;;;;;;;19.03;44.74;99521.41;5026976;28;20558;-81
2023/03/21 10:24:11;;;;;;;3.28;2.65;;;;;;;19.37;44.72;99525.84;5025784;28;20628;-78
2023/03/21 10:26:37;;;;;;;7.03;3.92;;;;;;;19.03;43.79;99533.00;5026403;28;20075;-78
2023/03/21 10:29:03;;;;;;;8.55;4.90;;;;;;;18.70;44.64;99523.06;5026698;28;20491;-79
2023/03/21 10:31:30;;;;;;;8.75;2.47;;;;;;;18.90;44.24;99522.06;5016473;28;20129;-78
2023/03/21 10:34:01;;;;;;;7.70;3.50;;;;;;;18.99;44.60;99528.75;5019756;28;20041;-78
2023/03/21 10:36:30;;;;;;;7.90;4.57;;;;;;;19.15;44.84;99504.72;5027061;28;20119;-78
2023/03/21 10:39:20;;;;;;;13.30;3.30;;;;;;;19.12;45.82;99499.53;5026750;28;20029;-78
2023/03/21 10:41:45;;;;;;;3.95;2.95;;;;;;;19.23;44.61;99491.81;5027102;28;20132;-78
2023/03/21 10:44:17;;;;;;;7.00;4.70;;;;;;;19.27;44.37;99519.25;5010082;28;20129;-78
2023/03/21 10:46:57;;;;;;;5.75;3.50;;;;;;;19.49;44.03;99489.53;5029050;28;20041;-79
2023/03/21 10:49:25;;;;;;;5.03;3.05;;;;;;;19.73;44.30;99500.69;5048644;28;20033;-79
2023/03/21 10:51:55;;;;;;;6.35;4.28;;;;;;;19.81;44.16;99493.09;5048447;28;20040;-79
2023/03/21 10:54:25;;;;;;;8.52;4.03;;;;;;;19.70;43.70;99490.16;5048835;28;20033;-79
2023/03/21 10:56:57;;;;;;;2.67;1.92;;;;;;;19.48;44.07;99490.50;5047779;28;20470;-79
2023/03/21 10:59:26;;;;;;;7.53;3.53;;;;;;;18.99;45.06;99477.09;5047348;28;20387;-79
2023/03/21 11:01:55;;;;;;;6.28;2.85;;;;;;;18.28;46.63;99454.00;5048350;28;20116;-80
2023/03/21 11:04:25;;;;;;;5.47;3.72;;;;;;;18.17;47.05;99454.56;5048222;28;20043;-79
2023/03/21 11:06:56;;;;;;;6.72;3.13;;;;;;;18.45;46.89;99454.00;5048250;28;20033;-80
2023/03/21 11:09:25;;;;;;;4.13;2.72;;;;;;;18.75;46.17;99456.91;5048434;28;20025;-80
2023/03/21 11:12:08;;;;;;;4.13;3.35;;;;;;;18.63;47.41;99478.03;5041037;28;20047;-81
2023/03/21 11:14:46;;;;;;;6.78;2.78;;;;;;;18.66;46.84;99453.84;5031921;28;20069;-80
2023/03/21 11:17:29;;;;;;;5.22;4.72;;;;;;;18.87;46.21;99447.38;5029077;28;20411;-79
2023/03/21 11:19:58;;;;;;;16.98;4.07;;;;;;;19.12;46.13;99422.00;5045811;28;20041;-80
2023/03/21 11:22:35;;;;;;;3.80;3.45;;;;;;;19.24;45.39;99418.66;5052525;28;20116;-79
2023/03/21 11:25:05;;;;;;;3.78;3.35;;;;;;;19.49;44.57;99436.03;5052104;28;20095;-80
2023/03/21 11:27:31;;;;;;;4.80;3.25;;;;;;;19.22;45.74;99433.09;5052645;28;20025;-79
2023/03/21 11:29:59;;;;;;;3.38;2.42;;;;;;;19.00;45.53;99415.53;5052320;28;20040;-80
2023/03/21 11:32:29;;;;;;;3.72;2.58;;;;;;;19.27;46.23;99423.00;5052042;28;20357;-80
2023/03/21 11:35:15;;;;;;;4.03;2.05;;;;;;;19.42;44.94;99419.47;5052102;28;20032;-80
2023/03/21 11:37:46;;;;;;;5.13;3.17;;;;;;;19.43;45.29;99382.88;5050876;28;20112;-81
2023/03/21 11:40:23;;;;;;;4.47;3.17;;;;;;;19.12;45.96;99389.94;5047775;28;20148;-80
2023/03/21 11:42:52;;;;;;;6.43;3.28;;;;;;;19.03;46.47;99394.00;5051658;28;20414;-85
2023/03/21 11:45:22;;;;;;;15.75;4.05;;;;;;;19.24;46.24;99407.13;5052085;28;20036;-84
2023/03/21 11:47:50;;;;;;;3.72;3.03;;;;;;;19.32;45.13;99379.00;5052126;28;20025;-84
2023/03/21 11:50:18;;;;;;;6.30;4.18;;;;;;;19.91;44.75;99418.53;5052494;28;20025;-79
2023/03/21 11:53:06;;;;;;;4.22;3.05;;;;;;;19.77;44.49;99405.94;5050885;28;20364;-80
2023/03/21 11:55:50;;;;;;;3.90;2.83;;;;;;;19.85;43.82;99400.16;5029675;28;20038;-79
2023/03/21 11:58:31;;;;;;;2.35;1.63;;;;;;;19.68;43.83;99375.19;5030076;28;20514;-81
2023/03/21 12:01:03;;;;;;;3.72;2.92;;;;;;;19.69;44.14;99384.06;5029124;28;20045;-79